createdAt,value
2018-12-31T00:01:50.455Z,2.80
2018-12-31T00:04:19.590Z,2.77
2018-12-31T00:06:48.755Z,3.20
2018-12-31T00:09:17.871Z,2.57
2018-12-31T00:11:47.005Z,2.83
2018-12-31T00:14:16.370Z,3.10
2018-12-31T00:16:45.517Z,2.30
2018-12-31T00:19:14.730Z,2.73
2018-12-31T00:21:44.023Z,2.53
2018-12-31T00:24:13.173Z,2.37
2018-12-31T00:26:42.304Z,2.57
2018-12-31T00:29:11.437Z,2.27
2018-12-31T00:31:41.038Z,1.77
2018-12-31T00:34:10.257Z,2.50
2018-12-31T00:36:39.402Z,2.70
2018-12-31T00:39:08.643Z,2.47
2018-12-31T00:41:37.802Z,2.57
2018-12-31T00:44:06.944Z,2.40
2018-12-31T00:46:36.122Z,2.30
2018-12-31T00:49:05.310Z,2.00
2018-12-31T00:51:34.437Z,2.30
2018-12-31T00:54:03.665Z,2.83
2018-12-31T00:56:32.871Z,2.20
2018-12-31T00:59:02.003Z,2.30
2018-12-31T01:01:31.271Z,2.10
2018-12-31T01:04:00.441Z,1.90
2018-12-31T01:06:29.725Z,2.50
2018-12-31T01:08:58.914Z,2.23
2018-12-31T01:11:28.073Z,2.43
2018-12-31T01:13:57.250Z,2.53
2018-12-31T01:16:26.449Z,2.30
2018-12-31T01:18:55.601Z,2.73
2018-12-31T01:21:24.757Z,2.20
2018-12-31T01:23:53.903Z,2.80
2018-12-31T01:26:23.139Z,2.80
2018-12-31T01:28:52.334Z,2.00
2018-12-31T01:31:21.567Z,2.77
2018-12-31T01:33:52.564Z,2.70
2018-12-31T01:36:21.750Z,2.03
2018-12-31T01:38:50.926Z,2.40
2018-12-31T01:41:20.102Z,2.30
2018-12-31T01:43:49.262Z,2.57
2018-12-31T01:46:18.502Z,2.40
2018-12-31T01:48:47.645Z,2.40
2018-12-31T01:51:16.806Z,2.30
2018-12-31T01:53:45.951Z,2.83
2018-12-31T01:56:15.114Z,2.60
2018-12-31T01:58:44.270Z,2.63
2018-12-31T02:01:13.486Z,2.90
2018-12-31T02:03:42.650Z,2.67
2018-12-31T02:06:13.073Z,2.70
2018-12-31T02:08:42.209Z,2.20
2018-12-31T02:11:11.249Z,2.93
2018-12-31T02:13:40.384Z,2.70
2018-12-31T02:16:09.446Z,3.30
2018-12-31T02:18:38.528Z,2.90
2018-12-31T02:21:07.637Z,2.50
2018-12-31T02:23:36.664Z,2.07
2018-12-31T02:26:05.736Z,2.60
2018-12-31T02:28:34.772Z,3.10
2018-12-31T02:31:03.891Z,2.63
2018-12-31T02:33:32.917Z,2.40
2018-12-31T02:36:01.978Z,2.90
2018-12-31T02:38:31.322Z,2.60
2018-12-31T02:41:00.421Z,2.70
2018-12-31T02:43:29.470Z,2.47
2018-12-31T02:45:58.552Z,2.50
2018-12-31T02:48:27.898Z,2.33
2018-12-31T02:50:57.251Z,2.40
2018-12-31T02:53:26.627Z,2.37
2018-12-31T02:55:56.072Z,2.50
2018-12-31T02:58:25.110Z,2.90
2018-12-31T03:00:54.154Z,3.03
2018-12-31T03:03:23.213Z,2.40
2018-12-31T03:05:52.562Z,2.50
2018-12-31T03:08:21.970Z,2.50
2018-12-31T03:10:51.404Z,2.27
2018-12-31T03:13:20.457Z,3.20
2018-12-31T03:15:49.525Z,2.83
2018-12-31T03:18:18.584Z,2.83
2018-12-31T03:20:47.636Z,3.07
2018-12-31T03:23:16.664Z,2.77
2018-12-31T03:25:45.716Z,2.83
2018-12-31T03:28:14.736Z,3.17
2018-12-31T03:30:44.186Z,2.83
2018-12-31T03:33:13.284Z,3.70
2018-12-31T03:35:42.348Z,2.77
2018-12-31T03:38:11.640Z,3.73
2018-12-31T03:40:40.678Z,4.03
2018-12-31T03:43:09.708Z,3.50
2018-12-31T03:45:38.754Z,3.83
2018-12-31T03:48:07.823Z,3.10
2018-12-31T03:50:36.857Z,3.43
2018-12-31T03:53:05.920Z,3.67
2018-12-31T03:55:34.961Z,3.30
2018-12-31T03:58:04.366Z,3.60
2018-12-31T04:00:33.401Z,3.70
2018-12-31T04:03:02.425Z,3.27
2018-12-31T04:05:31.797Z,3.70
2018-12-31T04:08:00.833Z,4.17
2018-12-31T04:10:29.865Z,3.90
2018-12-31T04:12:58.943Z,3.87
2018-12-31T04:15:28.069Z,3.87
2018-12-31T04:17:57.101Z,3.60
2018-12-31T04:20:26.140Z,3.53
2018-12-31T04:22:55.192Z,5.17
2018-12-31T04:25:24.252Z,3.80
2018-12-31T04:27:53.310Z,4.27
2018-12-31T04:30:22.360Z,4.07
2018-12-31T04:32:51.431Z,4.10
2018-12-31T04:35:20.479Z,4.13
2018-12-31T04:37:49.839Z,4.67
2018-12-31T04:40:19.161Z,4.27
2018-12-31T04:42:48.468Z,4.60
2018-12-31T04:45:17.592Z,4.33
2018-12-31T04:47:46.654Z,4.23
2018-12-31T04:50:15.703Z,4.33
2018-12-31T04:52:45.930Z,4.60
2018-12-31T04:55:14.998Z,5.20
2018-12-31T04:57:44.064Z,4.63
2018-12-31T05:00:13.104Z,4.57
2018-12-31T05:02:42.158Z,4.43
2018-12-31T05:05:11.268Z,5.20
2018-12-31T05:07:40.325Z,4.50
2018-12-31T05:10:09.380Z,5.10
2018-12-31T05:12:38.428Z,5.00
2018-12-31T05:15:07.528Z,5.00
2018-12-31T05:17:36.576Z,5.20
2018-12-31T05:20:05.826Z,4.50
2018-12-31T05:22:34.923Z,5.53
2018-12-31T05:25:04.033Z,4.97
2018-12-31T05:27:33.076Z,5.30
2018-12-31T05:30:02.133Z,5.00
2018-12-31T05:32:31.105Z,5.93
2018-12-31T05:35:00.302Z,5.23
2018-12-31T05:37:29.700Z,5.57
2018-12-31T05:39:58.749Z,6.33
2018-12-31T05:42:27.793Z,5.83
2018-12-31T05:44:56.829Z,6.20
2018-12-31T05:47:25.794Z,5.33
2018-12-31T05:49:55.107Z,5.97
2018-12-31T05:52:24.233Z,5.87
2018-12-31T05:54:53.276Z,6.13
2018-12-31T05:57:22.353Z,5.80
2018-12-31T05:59:51.641Z,6.57
2018-12-31T06:02:20.675Z,5.17
2018-12-31T06:04:49.697Z,5.60
2018-12-31T06:07:18.745Z,6.00
2018-12-31T06:09:47.803Z,5.30
2018-12-31T06:12:16.865Z,5.37
2018-12-31T06:14:45.813Z,6.10
2018-12-31T06:17:14.870Z,5.97
2018-12-31T06:19:44.250Z,5.70
2018-12-31T06:22:13.285Z,5.67
2018-12-31T06:24:42.370Z,6.60
2018-12-31T06:27:11.440Z,6.20
2018-12-31T06:29:40.526Z,5.20
2018-12-31T06:32:09.571Z,6.17
2018-12-31T06:34:38.604Z,6.40
2018-12-31T06:37:08.770Z,6.73
2018-12-31T06:39:37.797Z,5.53
2018-12-31T06:42:06.836Z,5.90
2018-12-31T06:44:35.964Z,6.00
2018-12-31T06:47:05.085Z,6.40
2018-12-31T06:49:34.186Z,6.40
2018-12-31T06:52:03.186Z,6.90
2018-12-31T06:54:32.145Z,6.97
2018-12-31T06:57:01.176Z,6.73
2018-12-31T06:59:30.586Z,6.60
2018-12-31T07:01:59.643Z,6.23
2018-12-31T07:04:28.697Z,6.23
2018-12-31T07:06:58.386Z,6.90
2018-12-31T07:09:27.428Z,7.13
2018-12-31T07:11:56.475Z,6.30
2018-12-31T07:14:25.557Z,6.73
2018-12-31T07:16:54.613Z,6.93
2018-12-31T07:19:23.691Z,6.97
2018-12-31T07:21:52.729Z,7.87
2018-12-31T07:24:21.806Z,6.87
2018-12-31T07:26:50.836Z,6.60
2018-12-31T07:29:19.864Z,6.43
2018-12-31T07:31:49.185Z,7.37
2018-12-31T07:34:18.218Z,6.40
2018-12-31T07:36:47.259Z,7.10
2018-12-31T07:39:16.429Z,6.50
2018-12-31T07:41:45.500Z,6.87
2018-12-31T07:44:14.594Z,6.43
2018-12-31T07:46:43.653Z,6.70
2018-12-31T07:49:12.710Z,6.63
2018-12-31T07:51:41.774Z,7.37
2018-12-31T07:54:10.818Z,7.00
2018-12-31T07:56:39.909Z,6.70
2018-12-31T07:59:08.997Z,6.83
2018-12-31T08:01:38.117Z,8.23
2018-12-31T08:04:07.250Z,7.00
2018-12-31T08:06:36.302Z,6.87
2018-12-31T08:09:07.369Z,7.27
2018-12-31T08:11:36.756Z,6.63
2018-12-31T08:14:05.833Z,6.73
2018-12-31T08:16:34.909Z,7.00
2018-12-31T08:19:03.952Z,7.20
2018-12-31T08:21:33.177Z,7.53
2018-12-31T08:24:02.253Z,7.40
2018-12-31T08:26:31.277Z,7.00
2018-12-31T08:29:00.372Z,6.93
2018-12-31T08:31:29.479Z,6.80
2018-12-31T08:33:58.452Z,6.77
2018-12-31T08:36:27.519Z,6.70
2018-12-31T08:38:56.645Z,8.33
2018-12-31T08:41:27.768Z,7.60
2018-12-31T08:43:56.812Z,7.40
2018-12-31T08:46:25.937Z,6.57
2018-12-31T08:48:54.972Z,7.13
2018-12-31T08:51:24.053Z,6.90
2018-12-31T08:53:53.133Z,6.20
2018-12-31T08:56:22.202Z,8.33
2018-12-31T08:58:51.282Z,7.00
2018-12-31T09:01:20.384Z,6.73
2018-12-31T09:03:49.575Z,6.53
2018-12-31T09:06:18.643Z,7.43
2018-12-31T09:08:47.845Z,6.17
2018-12-31T09:11:16.921Z,5.43
2018-12-31T09:13:46.114Z,6.40
2018-12-31T09:16:15.156Z,6.27
2018-12-31T09:18:44.216Z,6.37
2018-12-31T09:21:13.301Z,6.17
2018-12-31T09:23:42.486Z,5.73
2018-12-31T09:26:11.568Z,5.87
2018-12-31T09:28:40.576Z,6.30
2018-12-31T09:31:09.645Z,6.43
2018-12-31T09:33:38.834Z,7.87
2018-12-31T09:36:07.952Z,6.77
2018-12-31T09:38:37.414Z,5.70
2018-12-31T09:41:06.479Z,6.87
2018-12-31T09:43:35.511Z,6.07
2018-12-31T09:46:04.562Z,6.30
2018-12-31T09:48:33.648Z,7.03
2018-12-31T09:51:03.054Z,7.03
2018-12-31T09:53:32.089Z,6.40
2018-12-31T09:56:01.176Z,7.30
2018-12-31T09:58:30.251Z,6.70
2018-12-31T10:00:59.284Z,6.03
2018-12-31T10:03:28.361Z,6.83
2018-12-31T10:05:57.776Z,5.73
2018-12-31T10:08:26.867Z,6.37
2018-12-31T10:10:55.909Z,6.23
2018-12-31T10:13:25.029Z,6.00
2018-12-31T10:15:54.081Z,5.60
2018-12-31T10:18:23.114Z,6.43
2018-12-31T10:20:52.221Z,7.07
2018-12-31T10:23:21.692Z,6.67
2018-12-31T10:25:50.736Z,6.17
2018-12-31T10:28:19.790Z,5.30
2018-12-31T10:30:48.832Z,5.90
2018-12-31T10:33:17.856Z,5.83
2018-12-31T10:35:46.941Z,6.23
2018-12-31T10:38:16.049Z,6.13
2018-12-31T10:40:45.174Z,6.40
2018-12-31T10:43:14.240Z,5.27
2018-12-31T10:45:43.309Z,5.70
2018-12-31T10:48:12.372Z,5.40
2018-12-31T10:50:41.406Z,6.20
2018-12-31T10:53:10.462Z,5.47
2018-12-31T10:55:39.509Z,5.80
2018-12-31T10:58:08.545Z,5.50
2018-12-31T11:00:37.631Z,6.23
2018-12-31T11:03:06.901Z,5.37
2018-12-31T11:05:35.950Z,5.90
2018-12-31T11:08:04.989Z,5.80
2018-12-31T11:10:34.045Z,6.30
2018-12-31T11:13:03.085Z,5.87
2018-12-31T11:15:32.194Z,5.47
2018-12-31T11:18:01.330Z,5.50
2018-12-31T11:20:30.439Z,5.60
2018-12-31T11:22:59.541Z,5.53
2018-12-31T11:25:28.593Z,5.60
2018-12-31T11:27:57.656Z,6.60
2018-12-31T11:30:26.966Z,5.70
2018-12-31T11:32:56.005Z,5.50
2018-12-31T11:35:25.038Z,5.90
2018-12-31T11:37:54.091Z,5.73
2018-12-31T11:40:23.133Z,5.30
2018-12-31T11:42:52.209Z,5.43
2018-12-31T11:45:21.617Z,5.93
2018-12-31T11:47:50.651Z,5.70
2018-12-31T11:50:19.685Z,5.53
2018-12-31T11:52:48.751Z,5.30
2018-12-31T11:55:17.780Z,5.33
2018-12-31T11:57:46.840Z,5.40
2018-12-31T12:00:15.885Z,5.20
2018-12-31T12:02:44.929Z,5.07
2018-12-31T12:05:13.989Z,7.43
2018-12-31T12:07:43.236Z,5.03
2018-12-31T12:10:12.289Z,4.57
2018-12-31T12:12:41.317Z,4.73
2018-12-31T12:15:10.381Z,4.77
2018-12-31T12:17:39.417Z,5.40
2018-12-31T12:20:08.474Z,5.50
2018-12-31T12:22:37.504Z,5.33
2018-12-31T12:25:06.545Z,4.60
2018-12-31T12:27:35.612Z,5.53
2018-12-31T12:30:04.877Z,5.13
2018-12-31T12:32:33.924Z,5.43
2018-12-31T12:35:02.972Z,5.53
2018-12-31T12:37:32.093Z,4.60
2018-12-31T12:40:01.126Z,4.30
2018-12-31T12:42:30.180Z,5.17
2018-12-31T12:44:59.205Z,4.90
2018-12-31T12:47:28.196Z,4.87
2018-12-31T12:49:57.253Z,4.40
2018-12-31T12:52:26.284Z,4.70
2018-12-31T12:55:14.533Z,4.33
2018-12-31T12:57:43.614Z,4.37
2018-12-31T13:00:13.003Z,4.73
2018-12-31T13:02:43.733Z,4.30
2018-12-31T13:05:12.764Z,4.30
2018-12-31T13:07:41.833Z,3.97
2018-12-31T13:10:10.928Z,4.57
2018-12-31T13:12:40.065Z,5.13
2018-12-31T13:15:09.118Z,4.50
2018-12-31T13:17:38.437Z,4.47
2018-12-31T13:20:07.634Z,4.77
2018-12-31T13:22:36.677Z,4.10
2018-12-31T13:25:05.960Z,4.53
2018-12-31T13:27:34.997Z,5.70
2018-12-31T13:30:04.254Z,4.70
2018-12-31T13:32:33.333Z,4.50
2018-12-31T13:35:02.706Z,4.50
2018-12-31T13:37:31.773Z,5.03
2018-12-31T13:40:00.812Z,4.83
2018-12-31T13:42:29.847Z,4.30
2018-12-31T13:44:58.896Z,4.50
2018-12-31T13:47:28.149Z,3.90
2018-12-31T13:49:57.213Z,3.73
2018-12-31T13:52:26.256Z,3.47
2018-12-31T13:54:55.387Z,4.07
2018-12-31T13:57:24.504Z,3.77
2018-12-31T13:59:53.849Z,4.20
2018-12-31T14:02:22.895Z,3.70
2018-12-31T14:04:52.344Z,3.67
2018-12-31T14:07:21.460Z,3.30
2018-12-31T14:09:50.525Z,2.80
2018-12-31T14:12:19.597Z,3.60
2018-12-31T14:14:48.672Z,2.97
2018-12-31T14:17:17.726Z,3.53
2018-12-31T14:19:47.422Z,3.50
2018-12-31T14:22:16.445Z,4.07
2018-12-31T14:24:45.488Z,3.83
2018-12-31T14:27:14.551Z,3.73
2018-12-31T14:29:43.581Z,4.30
2018-12-31T14:32:13.009Z,3.90
2018-12-31T14:34:43.577Z,3.20
2018-12-31T14:37:12.635Z,3.67
2018-12-31T14:39:41.813Z,4.03
2018-12-31T14:42:10.844Z,4.60
2018-12-31T14:44:40.331Z,4.20
2018-12-31T14:47:09.400Z,4.73
2018-12-31T14:49:38.445Z,7.77
2018-12-31T14:52:07.490Z,5.20
2018-12-31T14:54:36.545Z,5.47
2018-12-31T14:57:05.893Z,5.00
2018-12-31T14:59:34.945Z,7.87
2018-12-31T15:02:04.189Z,22.47
2018-12-31T15:04:33.273Z,8.93
2018-12-31T15:07:02.389Z,6.23
2018-12-31T15:09:31.781Z,6.67
2018-12-31T15:12:00.838Z,5.77
2018-12-31T15:14:30.269Z,5.80
2018-12-31T15:16:59.337Z,7.00
2018-12-31T15:19:28.541Z,5.93
2018-12-31T15:21:57.667Z,5.63
2018-12-31T15:24:26.783Z,6.17
2018-12-31T15:26:55.833Z,6.33
2018-12-31T15:29:24.877Z,7.50
2018-12-31T15:31:53.955Z,7.47
2018-12-31T15:34:23.005Z,8.37
2018-12-31T15:36:52.075Z,9.30
2018-12-31T15:39:21.110Z,8.57
2018-12-31T15:41:50.571Z,9.00
2018-12-31T15:44:19.680Z,9.53
2018-12-31T15:46:48.737Z,8.50
2018-12-31T15:49:18.116Z,11.97
2018-12-31T15:51:47.248Z,12.10
2018-12-31T15:54:16.285Z,10.93
2018-12-31T15:56:45.490Z,11.30
2018-12-31T15:59:14.561Z,13.33
2018-12-31T16:01:43.626Z,23.23
2018-12-31T16:04:12.682Z,17.13
2018-12-31T16:06:41.765Z,15.90
2018-12-31T16:09:10.908Z,11.10
2018-12-31T16:11:40.064Z,11.90
2018-12-31T16:14:09.190Z,13.83
2018-12-31T16:16:38.254Z,13.43
2018-12-31T16:19:07.317Z,18.40
2018-12-31T16:21:36.470Z,13.00
2018-12-31T16:24:05.567Z,13.00
2018-12-31T16:26:34.648Z,13.07
2018-12-31T16:29:03.787Z,14.83
2018-12-31T16:31:33.147Z,14.40
2018-12-31T16:34:02.217Z,14.17
2018-12-31T16:36:31.269Z,17.60
2018-12-31T16:39:00.369Z,19.87
2018-12-31T16:41:29.445Z,23.80
2018-12-31T16:43:58.540Z,30.73
2018-12-31T16:46:27.989Z,21.60
2018-12-31T16:48:57.281Z,16.73
2018-12-31T16:51:26.429Z,16.60
2018-12-31T16:53:55.477Z,18.00
2018-12-31T16:56:24.578Z,22.53
2018-12-31T16:58:53.637Z,25.50
2018-12-31T17:01:22.741Z,18.10
2018-12-31T17:03:51.832Z,19.60
2018-12-31T17:06:20.881Z,20.03
2018-12-31T17:08:50.068Z,20.10
2018-12-31T17:11:19.177Z,20.47
2018-12-31T17:13:48.517Z,20.07
2018-12-31T17:16:17.572Z,22.73
2018-12-31T17:18:46.969Z,21.63
2018-12-31T17:21:16.056Z,36.23
2018-12-31T17:23:45.192Z,24.30
2018-12-31T17:26:14.869Z,20.37
2018-12-31T17:28:43.966Z,42.77
2018-12-31T17:31:13.063Z,57.40
2018-12-31T17:33:42.145Z,29.77
2018-12-31T17:36:11.196Z,34.07
2018-12-31T17:38:40.651Z,34.47
2018-12-31T17:41:09.700Z,46.60
2018-12-31T17:43:38.775Z,38.60
2018-12-31T17:46:07.846Z,34.83
2018-12-31T17:48:36.937Z,39.37
2018-12-31T17:51:06.486Z,33.53
2018-12-31T17:53:35.610Z,28.03
2018-12-31T17:56:04.710Z,35.77
2018-12-31T17:58:33.752Z,33.53
2018-12-31T18:01:02.814Z,33.47
2018-12-31T18:03:32.277Z,34.57
2018-12-31T18:06:01.435Z,43.63
2018-12-31T18:08:30.498Z,152.10
2018-12-31T18:10:59.537Z,45.77
2018-12-31T18:13:28.814Z,30.93
2018-12-31T18:15:57.880Z,31.70
2018-12-31T18:18:26.953Z,31.37
2018-12-31T18:20:57.257Z,30.83
2018-12-31T18:23:26.317Z,27.97
2018-12-31T18:25:55.380Z,38.57
2018-12-31T18:28:24.925Z,34.87
2018-12-31T18:30:53.983Z,42.20
2018-12-31T18:33:23.119Z,45.83
2018-12-31T18:35:52.200Z,55.93
2018-12-31T18:38:21.239Z,30.20
2018-12-31T18:40:50.661Z,86.10
2018-12-31T18:43:19.730Z,31.70
2018-12-31T18:45:48.793Z,51.07
2018-12-31T18:48:17.949Z,39.63
2018-12-31T18:50:47.038Z,157.77
2018-12-31T18:53:16.376Z,49.63
2018-12-31T18:55:45.437Z,31.83
2018-12-31T18:58:14.468Z,36.17
2018-12-31T19:00:43.622Z,26.30
2018-12-31T19:03:12.689Z,24.87
2018-12-31T19:05:42.004Z,26.03
2018-12-31T19:08:11.073Z,50.33
2018-12-31T19:10:40.150Z,35.10
2018-12-31T19:13:09.217Z,29.83
2018-12-31T19:15:38.639Z,28.23
2018-12-31T19:18:07.678Z,46.50
2018-12-31T19:20:37.024Z,37.23
2018-12-31T19:23:06.064Z,60.70
2018-12-31T19:25:35.098Z,40.50
2018-12-31T19:28:04.246Z,41.97
2018-12-31T19:30:33.367Z,41.27
2018-12-31T19:33:02.356Z,32.53
2018-12-31T19:35:31.430Z,28.20
2018-12-31T19:38:00.473Z,35.60
2018-12-31T19:40:29.529Z,33.07
2018-12-31T19:42:58.566Z,29.20
2018-12-31T19:45:27.701Z,31.97
2018-12-31T19:47:56.794Z,32.17
2018-12-31T19:50:25.829Z,46.07
2018-12-31T19:52:54.798Z,40.00
2018-12-31T19:55:24.149Z,31.13
2018-12-31T19:57:53.226Z,45.90
2018-12-31T20:00:22.273Z,33.00
2018-12-31T20:02:51.596Z,29.93
2018-12-31T20:05:20.574Z,31.17
2018-12-31T20:07:49.618Z,32.00
2018-12-31T20:10:19.033Z,30.00
2018-12-31T20:12:48.099Z,47.80
2018-12-31T20:15:17.177Z,75.63
2018-12-31T20:17:46.274Z,95.07
2018-12-31T20:20:15.328Z,53.00
2018-12-31T20:22:44.680Z,103.43
2018-12-31T20:25:13.820Z,47.20
2018-12-31T20:27:42.808Z,51.27
2018-12-31T20:30:11.889Z,62.20
2018-12-31T20:32:40.950Z,55.83
2018-12-31T20:35:10.074Z,59.57
2018-12-31T20:37:39.143Z,53.17
2018-12-31T20:40:08.268Z,62.03
2018-12-31T20:42:37.320Z,63.00
2018-12-31T20:45:06.369Z,42.73
2018-12-31T20:47:36.594Z,46.23
2018-12-31T20:50:06.353Z,44.37
2018-12-31T20:52:35.753Z,90.83
2018-12-31T20:55:04.877Z,53.83
2018-12-31T20:57:33.958Z,100.97
2018-12-31T21:00:03.105Z,101.33
2018-12-31T21:02:32.672Z,89.27
2018-12-31T21:05:01.712Z,52.77
2018-12-31T21:07:30.973Z,92.80
2018-12-31T21:10:00.016Z,123.27
2018-12-31T21:12:29.072Z,49.43
2018-12-31T21:14:58.136Z,91.87
2018-12-31T21:17:27.194Z,63.53
2018-12-31T21:19:56.227Z,40.10
2018-12-31T21:22:25.329Z,37.23
2018-12-31T21:24:54.369Z,47.47
2018-12-31T21:27:23.800Z,37.67
2018-12-31T21:29:52.864Z,38.23
2018-12-31T21:32:21.893Z,47.17
2018-12-31T21:34:51.226Z,54.77
2018-12-31T21:37:20.265Z,50.53
2018-12-31T21:39:49.301Z,47.27
2018-12-31T21:42:18.369Z,46.50
2018-12-31T21:44:47.974Z,92.93
2018-12-31T21:47:17.016Z,77.30
2018-12-31T21:49:46.065Z,35.30
2018-12-31T21:52:15.165Z,40.53
2018-12-31T21:54:44.478Z,42.73
2018-12-31T21:57:13.562Z,40.33
2018-12-31T21:59:42.617Z,43.57
2018-12-31T22:02:11.681Z,33.63
2018-12-31T22:04:40.747Z,47.37
2018-12-31T22:07:10.185Z,44.83
2018-12-31T22:09:39.262Z,40.00
2018-12-31T22:12:08.328Z,45.83
2018-12-31T22:14:37.381Z,54.17
2018-12-31T22:17:06.449Z,33.47
2018-12-31T22:19:35.517Z,46.40
2018-12-31T22:22:04.590Z,33.37
2018-12-31T22:24:33.664Z,27.13
2018-12-31T22:27:02.730Z,29.60
2018-12-31T22:29:31.710Z,26.50
2018-12-31T22:32:00.797Z,31.47
2018-12-31T22:34:29.866Z,36.03
2018-12-31T22:36:58.922Z,31.17
2018-12-31T22:39:27.900Z,34.70
2018-12-31T22:41:56.985Z,27.60
2018-12-31T22:44:26.291Z,31.60
2018-12-31T22:46:55.333Z,75.80
2018-12-31T22:49:24.384Z,53.87
2018-12-31T22:51:53.385Z,49.83
2018-12-31T22:54:22.443Z,137.13
2018-12-31T22:56:51.510Z,85.30
2018-12-31T22:59:20.540Z,64.13
2018-12-31T23:01:49.659Z,207.43
2018-12-31T23:04:18.766Z,331.33
2018-12-31T23:06:48.080Z,388.53
2018-12-31T23:09:17.293Z,728.30
2018-12-31T23:11:46.412Z,590.57
2018-12-31T23:14:15.475Z,591.97
2018-12-31T23:16:47.973Z,921.77
2018-12-31T23:19:17.452Z,803.27
2018-12-31T23:21:46.599Z,891.70
2018-12-31T23:24:15.662Z,933.80
2018-12-31T23:26:44.962Z,671.27
2018-12-31T23:29:14.024Z,776.67
2018-12-31T23:31:44.335Z,613.87
2018-12-31T23:34:12.990Z,626.97
2018-12-31T23:36:42.075Z,563.43
2018-12-31T23:39:11.401Z,826.73
2018-12-31T23:41:40.461Z,683.60
2018-12-31T23:44:09.525Z,428.43
2018-12-31T23:46:38.620Z,319.23
2018-12-31T23:49:07.919Z,368.33
2018-12-31T23:51:37.050Z,366.37
2018-12-31T23:54:06.125Z,370.97
2018-12-31T23:56:35.209Z,423.30
2018-12-31T23:59:04.329Z,262.60
